sensor_id;sensor_type;location;lat;lon;timestamp;P1;durP1;ratioP1;P2;durP2;ratioP2
41623;SDS011;27319;50.306;18.926;2022-12-18T00:01:42;79.82;;;31.88;;
41623;SDS011;27319;50.306;18.926;2022-12-18T00:04:43;71.65;;;27.70;;
41623;SDS011;27319;50.306;18.926;2022-12-18T00:07:44;71.80;;;26.67;;
41623;SDS011;27319;50.306;18.926;2022-12-18T00:10:45;64.32;;;25.10;;
41623;SDS011;27319;50.306;18.926;2022-12-18T00:13:46;69.80;;;29.10;;
41623;SDS011;27319;50.306;18.926;2022-12-18T00:16:48;73.53;;;27.52;;
41623;SDS011;27319;50.306;18.926;2022-12-18T00:20:48;64.22;;;25.30;;
41623;SDS011;27319;50.306;18.926;2022-12-18T00:24:49;82.22;;;28.40;;
41623;SDS011;27319;50.306;18.926;2022-12-18T00:28:50;59.78;;;23.70;;
41623;SDS011;27319;50.306;18.926;2022-12-18T00:32:50;62.88;;;23.15;;
41623;SDS011;27319;50.306;18.926;2022-12-18T00:36:51;74.88;;;28.73;;
41623;SDS011;27319;50.306;18.926;2022-12-18T00:40:52;89.38;;;31.23;;
41623;SDS011;27319;50.306;18.926;2022-12-18T00:44:51;77.72;;;30.52;;
41623;SDS011;27319;50.306;18.926;2022-12-18T00:48:52;74.72;;;30.73;;
41623;SDS011;27319;50.306;18.926;2022-12-18T00:52:52;72.70;;;30.45;;
41623;SDS011;27319;50.306;18.926;2022-12-18T00:56:53;94.80;;;34.03;;
41623;SDS011;27319;50.306;18.926;2022-12-18T01:00:54;87.18;;;33.40;;
41623;SDS011;27319;50.306;18.926;2022-12-18T01:04:55;75.68;;;33.85;;
41623;SDS011;27319;50.306;18.926;2022-12-18T01:08:12;92.43;;;39.67;;
41623;SDS011;27319;50.306;18.926;2022-12-18T01:12:12;86.53;;;34.13;;
41623;SDS011;27319;50.306;18.926;2022-12-18T01:16:13;73.57;;;30.15;;
41623;SDS011;27319;50.306;18.926;2022-12-18T01:20:14;81.47;;;33.38;;
41623;SDS011;27319;50.306;18.926;2022-12-18T01:24:14;63.08;;;26.17;;
41623;SDS011;27319;50.306;18.926;2022-12-18T01:28:15;80.20;;;34.08;;
41623;SDS011;27319;50.306;18.926;2022-12-18T01:32:15;65.45;;;27.25;;
41623;SDS011;27319;50.306;18.926;2022-12-18T01:36:17;79.43;;;28.10;;
41623;SDS011;27319;50.306;18.926;2022-12-18T01:40:17;59.72;;;26.25;;
41623;SDS011;27319;50.306;18.926;2022-12-18T01:48:16;71.20;;;29.52;;
41623;SDS011;27319;50.306;18.926;2022-12-18T01:52:17;72.93;;;26.52;;
41623;SDS011;27319;50.306;18.926;2022-12-18T01:56:20;63.55;;;25.45;;
41623;SDS011;27319;50.306;18.926;2022-12-18T02:00:21;75.28;;;30.05;;
41623;SDS011;27319;50.306;18.926;2022-12-18T02:04:22;66.43;;;25.67;;
41623;SDS011;27319;50.306;18.926;2022-12-18T02:07:56;69.43;;;25.75;;
41623;SDS011;27319;50.306;18.926;2022-12-18T02:11:59;65.10;;;24.13;;
41623;SDS011;27319;50.306;18.926;2022-12-18T02:16:44;63.10;;;23.55;;
41623;SDS011;27319;50.306;18.926;2022-12-18T02:27:11;67.03;;;24.70;;
41623;SDS011;27319;50.306;18.926;2022-12-18T02:30:49;55.15;;;25.20;;
41623;SDS011;27319;50.306;18.926;2022-12-18T02:33:53;59.33;;;24.75;;
41623;SDS011;27319;50.306;18.926;2022-12-18T02:37:53;54.38;;;23.20;;
41623;SDS011;27319;50.306;18.926;2022-12-18T02:41:54;69.07;;;28.45;;
41623;SDS011;27319;50.306;18.926;2022-12-18T02:45:58;52.97;;;22.73;;
41623;SDS011;27319;50.306;18.926;2022-12-18T02:54:02;53.03;;;22.50;;
41623;SDS011;27319;50.306;18.926;2022-12-18T02:58:11;55.22;;;22.58;;
41623;SDS011;27319;50.306;18.926;2022-12-18T03:01:57;60.35;;;23.08;;
41623;SDS011;27319;50.306;18.926;2022-12-18T03:06:06;51.20;;;21.98;;
41623;SDS011;27319;50.306;18.926;2022-12-18T03:09:12;74.85;;;30.65;;
41623;SDS011;27319;50.306;18.926;2022-12-18T03:13:16;53.42;;;23.13;;
41623;SDS011;27319;50.306;18.926;2022-12-18T03:17:25;78.18;;;30.88;;
41623;SDS011;27319;50.306;18.926;2022-12-18T03:21:49;89.90;;;36.13;;
41623;SDS011;27319;50.306;18.926;2022-12-18T03:25:28;63.50;;;25.27;;
41623;SDS011;27319;50.306;18.926;2022-12-18T03:29:38;61.60;;;23.27;;
41623;SDS011;27319;50.306;18.926;2022-12-18T03:33:41;84.57;;;33.50;;
41623;SDS011;27319;50.306;18.926;2022-12-18T03:37:39;88.63;;;35.38;;
41623;SDS011;27319;50.306;18.926;2022-12-18T03:45:34;85.85;;;32.53;;
41623;SDS011;27319;50.306;18.926;2022-12-18T03:49:56;65.05;;;25.95;;
41623;SDS011;27319;50.306;18.926;2022-12-18T03:53:44;66.40;;;25.80;;
41623;SDS011;27319;50.306;18.926;2022-12-18T03:57:42;56.65;;;23.73;;
41623;SDS011;27319;50.306;18.926;2022-12-18T04:01:45;69.15;;;25.88;;
41623;SDS011;27319;50.306;18.926;2022-12-18T04:05:44;63.88;;;25.25;;
41623;SDS011;27319;50.306;18.926;2022-12-18T04:08:47;64.70;;;27.05;;
41623;SDS011;27319;50.306;18.926;2022-12-18T04:11:49;66.90;;;26.27;;
41623;SDS011;27319;50.306;18.926;2022-12-18T04:14:49;75.25;;;28.55;;
41623;SDS011;27319;50.306;18.926;2022-12-18T04:18:50;61.38;;;26.40;;
41623;SDS011;27319;50.306;18.926;2022-12-18T04:22:51;60.33;;;22.77;;
41623;SDS011;27319;50.306;18.926;2022-12-18T04:26:51;79.72;;;32.53;;
41623;SDS011;27319;50.306;18.926;2022-12-18T04:30:52;73.00;;;28.48;;
41623;SDS011;27319;50.306;18.926;2022-12-18T04:34:53;84.80;;;31.40;;
41623;SDS011;27319;50.306;18.926;2022-12-18T04:38:53;69.05;;;26.92;;
41623;SDS011;27319;50.306;18.926;2022-12-18T04:42:54;77.70;;;32.33;;
41623;SDS011;27319;50.306;18.926;2022-12-18T04:46:54;69.93;;;29.08;;
41623;SDS011;27319;50.306;18.926;2022-12-18T04:50:55;61.47;;;25.15;;
41623;SDS011;27319;50.306;18.926;2022-12-18T04:54:56;65.00;;;25.55;;
41623;SDS011;27319;50.306;18.926;2022-12-18T04:58:57;59.05;;;24.85;;
41623;SDS011;27319;50.306;18.926;2022-12-18T05:02:57;96.82;;;38.85;;
41623;SDS011;27319;50.306;18.926;2022-12-18T05:06:58;65.53;;;26.75;;
41623;SDS011;27319;50.306;18.926;2022-12-18T05:09:59;78.82;;;30.15;;
41623;SDS011;27319;50.306;18.926;2022-12-18T05:13:00;84.38;;;32.80;;
41623;SDS011;27319;50.306;18.926;2022-12-18T05:16:01;75.05;;;31.83;;
41623;SDS011;27319;50.306;18.926;2022-12-18T05:20:02;91.28;;;41.03;;
41623;SDS011;27319;50.306;18.926;2022-12-18T05:24:02;81.35;;;36.42;;
41623;SDS011;27319;50.306;18.926;2022-12-18T05:28:03;69.28;;;29.13;;
41623;SDS011;27319;50.306;18.926;2022-12-18T05:32:04;64.88;;;24.40;;
41623;SDS011;27319;50.306;18.926;2022-12-18T05:36:06;66.88;;;27.90;;
41623;SDS011;27319;50.306;18.926;2022-12-18T05:40:06;70.38;;;26.73;;
41623;SDS011;27319;50.306;18.926;2022-12-18T05:44:06;70.55;;;28.02;;
41623;SDS011;27319;50.306;18.926;2022-12-18T05:48:07;65.53;;;24.40;;
41623;SDS011;27319;50.306;18.926;2022-12-18T05:52:08;68.10;;;26.80;;
41623;SDS011;27319;50.306;18.926;2022-12-18T05:56:11;59.70;;;27.00;;
41623;SDS011;27319;50.306;18.926;2022-12-18T05:59:13;65.75;;;25.40;;
41623;SDS011;27319;50.306;18.926;2022-12-18T06:02:15;73.57;;;29.65;;
41623;SDS011;27319;50.306;18.926;2022-12-18T06:05:15;81.78;;;35.03;;
41623;SDS011;27319;50.306;18.926;2022-12-18T06:08:17;97.50;;;45.55;;
41623;SDS011;27319;50.306;18.926;2022-12-18T06:11:22;82.82;;;35.75;;
41623;SDS011;27319;50.306;18.926;2022-12-18T06:14:24;68.00;;;26.55;;
41623;SDS011;27319;50.306;18.926;2022-12-18T06:17:31;69.15;;;27.38;;
41623;SDS011;27319;50.306;18.926;2022-12-18T06:20:33;63.47;;;25.63;;
41623;SDS011;27319;50.306;18.926;2022-12-18T06:23:36;78.97;;;28.38;;
41623;SDS011;27319;50.306;18.926;2022-12-18T06:26:38;88.28;;;37.15;;
41623;SDS011;27319;50.306;18.926;2022-12-18T06:30:38;95.93;;;40.30;;
41623;SDS011;27319;50.306;18.926;2022-12-18T06:34:39;91.47;;;36.97;;
41623;SDS011;27319;50.306;18.926;2022-12-18T06:38:41;87.68;;;35.20;;
41623;SDS011;27319;50.306;18.926;2022-12-18T06:42:41;82.60;;;33.80;;
41623;SDS011;27319;50.306;18.926;2022-12-18T06:46:41;94.55;;;36.60;;
41623;SDS011;27319;50.306;18.926;2022-12-18T06:50:42;116.45;;;44.90;;
41623;SDS011;27319;50.306;18.926;2022-12-18T06:54:43;122.65;;;51.83;;
41623;SDS011;27319;50.306;18.926;2022-12-18T06:57:44;132.48;;;52.35;;
41623;SDS011;27319;50.306;18.926;2022-12-18T07:00:44;101.18;;;41.88;;
41623;SDS011;27319;50.306;18.926;2022-12-18T07:03:45;116.25;;;41.60;;
41623;SDS011;27319;50.306;18.926;2022-12-18T07:06:46;101.05;;;41.10;;
41623;SDS011;27319;50.306;18.926;2022-12-18T07:10:47;103.38;;;38.40;;
41623;SDS011;27319;50.306;18.926;2022-12-18T07:14:48;103.10;;;43.00;;
41623;SDS011;27319;50.306;18.926;2022-12-18T07:18:49;105.90;;;44.72;;
41623;SDS011;27319;50.306;18.926;2022-12-18T07:22:49;136.70;;;56.33;;
41623;SDS011;27319;50.306;18.926;2022-12-18T07:26:50;132.15;;;45.80;;
41623;SDS011;27319;50.306;18.926;2022-12-18T07:30:51;189.32;;;59.83;;
41623;SDS011;27319;50.306;18.926;2022-12-18T07:34:51;148.77;;;55.47;;
41623;SDS011;27319;50.306;18.926;2022-12-18T07:38:52;143.88;;;51.78;;
41623;SDS011;27319;50.306;18.926;2022-12-18T07:42:53;127.22;;;49.13;;
41623;SDS011;27319;50.306;18.926;2022-12-18T07:46:53;126.57;;;48.35;;
41623;SDS011;27319;50.306;18.926;2022-12-18T07:51:01;155.25;;;56.47;;
41623;SDS011;27319;50.306;18.926;2022-12-18T07:54:02;139.55;;;55.58;;
41623;SDS011;27319;50.306;18.926;2022-12-18T07:57:04;137.00;;;55.25;;
41623;SDS011;27319;50.306;18.926;2022-12-18T08:01:05;146.80;;;56.80;;
41623;SDS011;27319;50.306;18.926;2022-12-18T08:05:05;136.13;;;50.97;;
41623;SDS011;27319;50.306;18.926;2022-12-18T08:08:10;122.00;;;49.08;;
41623;SDS011;27319;50.306;18.926;2022-12-18T08:12:11;112.22;;;46.75;;
41623;SDS011;27319;50.306;18.926;2022-12-18T08:16:12;120.72;;;47.80;;
41623;SDS011;27319;50.306;18.926;2022-12-18T08:20:12;131.32;;;48.25;;
41623;SDS011;27319;50.306;18.926;2022-12-18T08:24:13;124.13;;;46.55;;
41623;SDS011;27319;50.306;18.926;2022-12-18T08:28:14;105.05;;;43.92;;
41623;SDS011;27319;50.306;18.926;2022-12-18T08:32:14;114.40;;;42.55;;
41623;SDS011;27319;50.306;18.926;2022-12-18T08:36:15;131.80;;;48.22;;
41623;SDS011;27319;50.306;18.926;2022-12-18T08:39:16;133.88;;;50.13;;
41623;SDS011;27319;50.306;18.926;2022-12-18T08:42:17;165.15;;;62.22;;
41623;SDS011;27319;50.306;18.926;2022-12-18T08:45:37;159.70;;;64.60;;
41623;SDS011;27319;50.306;18.926;2022-12-18T08:48:38;140.73;;;56.33;;
41623;SDS011;27319;50.306;18.926;2022-12-18T08:51:39;166.15;;;61.95;;
41623;SDS011;27319;50.306;18.926;2022-12-18T08:54:40;135.70;;;56.28;;
41623;SDS011;27319;50.306;18.926;2022-12-18T08:57:42;145.20;;;57.70;;
41623;SDS011;27319;50.306;18.926;2022-12-18T09:00:42;127.97;;;52.15;;
41623;SDS011;27319;50.306;18.926;2022-12-18T09:03:43;124.43;;;46.72;;
41623;SDS011;27319;50.306;18.926;2022-12-18T09:07:44;170.65;;;63.67;;
41623;SDS011;27319;50.306;18.926;2022-12-18T09:10:46;152.65;;;63.60;;
41623;SDS011;27319;50.306;18.926;2022-12-18T09:13:49;130.18;;;53.08;;
41623;SDS011;27319;50.306;18.926;2022-12-18T09:17:50;139.00;;;58.15;;
41623;SDS011;27319;50.306;18.926;2022-12-18T09:21:50;127.53;;;50.92;;
41623;SDS011;27319;50.306;18.926;2022-12-18T09:25:51;103.90;;;41.53;;
41623;SDS011;27319;50.306;18.926;2022-12-18T09:29:52;162.73;;;61.83;;
41623;SDS011;27319;50.306;18.926;2022-12-18T09:33:56;185.32;;;64.38;;
41623;SDS011;27319;50.306;18.926;2022-12-18T09:37:57;170.60;;;58.53;;
41623;SDS011;27319;50.306;18.926;2022-12-18T09:41:57;101.57;;;38.28;;
41623;SDS011;27319;50.306;18.926;2022-12-18T09:45:59;102.50;;;40.78;;
41623;SDS011;27319;50.306;18.926;2022-12-18T09:50:05;86.97;;;32.65;;
41623;SDS011;27319;50.306;18.926;2022-12-18T09:54:16;71.22;;;30.23;;
41623;SDS011;27319;50.306;18.926;2022-12-18T09:58:14;93.28;;;35.00;;
41623;SDS011;27319;50.306;18.926;2022-12-18T10:02:13;103.72;;;40.78;;
41623;SDS011;27319;50.306;18.926;2022-12-18T10:06:14;87.65;;;36.25;;
41623;SDS011;27319;50.306;18.926;2022-12-18T10:09:23;75.35;;;31.95;;
41623;SDS011;27319;50.306;18.926;2022-12-18T10:13:38;93.57;;;35.95;;
41623;SDS011;27319;50.306;18.926;2022-12-18T10:21:03;87.78;;;37.58;;
41623;SDS011;27319;50.306;18.926;2022-12-18T10:28:57;75.22;;;31.50;;
41623;SDS011;27319;50.306;18.926;2022-12-18T10:33:01;78.97;;;31.90;;
41623;SDS011;27319;50.306;18.926;2022-12-18T10:37:03;229.88;;;79.20;;
41623;SDS011;27319;50.306;18.926;2022-12-18T10:40:14;296.65;;;105.03;;
41623;SDS011;27319;50.306;18.926;2022-12-18T10:47:35;95.15;;;37.38;;
41623;SDS011;27319;50.306;18.926;2022-12-18T10:51:36;83.75;;;37.30;;
41623;SDS011;27319;50.306;18.926;2022-12-18T10:55:45;102.25;;;42.50;;
41623;SDS011;27319;50.306;18.926;2022-12-18T10:59:51;100.30;;;40.47;;
41623;SDS011;27319;50.306;18.926;2022-12-18T11:04:00;86.15;;;34.70;;
41623;SDS011;27319;50.306;18.926;2022-12-18T11:08:11;83.43;;;31.08;;
41623;SDS011;27319;50.306;18.926;2022-12-18T11:15:32;74.68;;;31.38;;
41623;SDS011;27319;50.306;18.926;2022-12-18T11:19:34;76.30;;;31.75;;
41623;SDS011;27319;50.306;18.926;2022-12-18T11:23:34;81.93;;;30.17;;
41623;SDS011;27319;50.306;18.926;2022-12-18T11:27:35;88.80;;;32.67;;
41623;SDS011;27319;50.306;18.926;2022-12-18T11:31:35;75.85;;;31.58;;
41623;SDS011;27319;50.306;18.926;2022-12-18T11:35:59;68.72;;;28.08;;
41623;SDS011;27319;50.306;18.926;2022-12-18T11:40:03;71.15;;;28.63;;
41623;SDS011;27319;50.306;18.926;2022-12-18T11:44:02;80.90;;;30.83;;
41623;SDS011;27319;50.306;18.926;2022-12-18T11:48:15;79.47;;;33.08;;
41623;SDS011;27319;50.306;18.926;2022-12-18T12:05:20;94.57;;;40.08;;
41623;SDS011;27319;50.306;18.926;2022-12-18T12:12:10;79.95;;;34.25;;
41623;SDS011;27319;50.306;18.926;2022-12-18T12:27:20;77.15;;;34.50;;
41623;SDS011;27319;50.306;18.926;2022-12-18T12:42:35;67.28;;;27.23;;
41623;SDS011;27319;50.306;18.926;2022-12-18T12:46:36;73.65;;;30.35;;
41623;SDS011;27319;50.306;18.926;2022-12-18T12:50:35;69.45;;;30.58;;
41623;SDS011;27319;50.306;18.926;2022-12-18T12:54:35;71.10;;;31.23;;
41623;SDS011;27319;50.306;18.926;2022-12-18T12:58:40;71.88;;;31.45;;
41623;SDS011;27319;50.306;18.926;2022-12-18T13:06:20;69.53;;;31.58;;
41623;SDS011;27319;50.306;18.926;2022-12-18T13:13:51;75.97;;;29.88;;
41623;SDS011;27319;50.306;18.926;2022-12-18T13:17:48;77.47;;;32.05;;
41623;SDS011;27319;50.306;18.926;2022-12-18T13:21:29;68.97;;;30.02;;
41623;SDS011;27319;50.306;18.926;2022-12-18T13:24:33;75.80;;;33.60;;
41623;SDS011;27319;50.306;18.926;2022-12-18T13:32:28;87.10;;;34.50;;
41623;SDS011;27319;50.306;18.926;2022-12-18T13:36:29;75.13;;;32.30;;
41623;SDS011;27319;50.306;18.926;2022-12-18T13:48:13;88.47;;;34.92;;
41623;SDS011;27319;50.306;18.926;2022-12-18T13:52:21;83.35;;;36.05;;
41623;SDS011;27319;50.306;18.926;2022-12-18T13:56:17;86.90;;;38.70;;
41623;SDS011;27319;50.306;18.926;2022-12-18T14:00:30;99.35;;;39.92;;
41623;SDS011;27319;50.306;18.926;2022-12-18T14:04:34;116.88;;;47.67;;
41623;SDS011;27319;50.306;18.926;2022-12-18T14:08:11;114.75;;;49.70;;
41623;SDS011;27319;50.306;18.926;2022-12-18T14:11:19;118.10;;;52.53;;
41623;SDS011;27319;50.306;18.926;2022-12-18T14:14:22;118.75;;;51.30;;
41623;SDS011;27319;50.306;18.926;2022-12-18T14:18:33;126.45;;;54.10;;
41623;SDS011;27319;50.306;18.926;2022-12-18T14:22:32;120.57;;;56.97;;
41623;SDS011;27319;50.306;18.926;2022-12-18T14:26:33;113.75;;;51.90;;
41623;SDS011;27319;50.306;18.926;2022-12-18T14:30:38;129.32;;;56.33;;
41623;SDS011;27319;50.306;18.926;2022-12-18T14:34:37;134.82;;;59.50;;
41623;SDS011;27319;50.306;18.926;2022-12-18T14:38:39;131.45;;;56.65;;
41623;SDS011;27319;50.306;18.926;2022-12-18T14:42:39;123.90;;;50.90;;
41623;SDS011;27319;50.306;18.926;2022-12-18T14:46:39;118.40;;;51.95;;
41623;SDS011;27319;50.306;18.926;2022-12-18T14:50:40;115.30;;;52.22;;
41623;SDS011;27319;50.306;18.926;2022-12-18T14:54:41;118.95;;;54.47;;
41623;SDS011;27319;50.306;18.926;2022-12-18T14:59:00;123.88;;;55.22;;
41623;SDS011;27319;50.306;18.926;2022-12-18T15:02:46;146.50;;;58.17;;
41623;SDS011;27319;50.306;18.926;2022-12-18T15:06:45;148.75;;;60.28;;
41623;SDS011;27319;50.306;18.926;2022-12-18T15:11:01;143.55;;;61.20;;
41623;SDS011;27319;50.306;18.926;2022-12-18T15:14:21;150.15;;;61.83;;
41623;SDS011;27319;50.306;18.926;2022-12-18T15:17:32;121.97;;;53.80;;
41623;SDS011;27319;50.306;18.926;2022-12-18T15:21:21;134.03;;;56.67;;
41623;SDS011;27319;50.306;18.926;2022-12-18T15:25:43;153.00;;;64.18;;
41623;SDS011;27319;50.306;18.926;2022-12-18T15:29:23;155.52;;;66.00;;
41623;SDS011;27319;50.306;18.926;2022-12-18T15:33:25;163.43;;;71.47;;
41623;SDS011;27319;50.306;18.926;2022-12-18T15:37:24;194.32;;;78.63;;
41623;SDS011;27319;50.306;18.926;2022-12-18T15:41:25;183.00;;;75.13;;
41623;SDS011;27319;50.306;18.926;2022-12-18T15:45:24;140.07;;;62.30;;
41623;SDS011;27319;50.306;18.926;2022-12-18T15:49:25;134.40;;;61.17;;
41623;SDS011;27319;50.306;18.926;2022-12-18T15:53:28;132.57;;;61.63;;
41623;SDS011;27319;50.306;18.926;2022-12-18T15:57:26;128.45;;;57.55;;
41623;SDS011;27319;50.306;18.926;2022-12-18T16:01:27;133.30;;;60.13;;
41623;SDS011;27319;50.306;18.926;2022-12-18T16:05:15;144.70;;;61.97;;
41623;SDS011;27319;50.306;18.926;2022-12-18T16:08:18;157.20;;;66.60;;
41623;SDS011;27319;50.306;18.926;2022-12-18T16:12:22;126.40;;;56.30;;
41623;SDS011;27319;50.306;18.926;2022-12-18T16:16:22;124.82;;;53.85;;
41623;SDS011;27319;50.306;18.926;2022-12-18T16:20:23;134.63;;;59.47;;
41623;SDS011;27319;50.306;18.926;2022-12-18T16:24:27;136.07;;;60.92;;
41623;SDS011;27319;50.306;18.926;2022-12-18T16:28:27;139.95;;;60.72;;
41623;SDS011;27319;50.306;18.926;2022-12-18T16:32:28;148.70;;;61.47;;
41623;SDS011;27319;50.306;18.926;2022-12-18T16:36:29;133.60;;;60.92;;
41623;SDS011;27319;50.306;18.926;2022-12-18T16:40:30;134.43;;;57.90;;
41623;SDS011;27319;50.306;18.926;2022-12-18T16:44:29;141.93;;;58.53;;
41623;SDS011;27319;50.306;18.926;2022-12-18T16:48:29;129.60;;;57.58;;
41623;SDS011;27319;50.306;18.926;2022-12-18T16:52:30;137.45;;;60.15;;
41623;SDS011;27319;50.306;18.926;2022-12-18T16:56:31;130.60;;;59.83;;
41623;SDS011;27319;50.306;18.926;2022-12-18T16:59:33;152.65;;;65.07;;
41623;SDS011;27319;50.306;18.926;2022-12-18T17:02:35;144.23;;;61.25;;
41623;SDS011;27319;50.306;18.926;2022-12-18T17:06:38;132.93;;;55.08;;
41623;SDS011;27319;50.306;18.926;2022-12-18T17:09:41;131.43;;;55.55;;
41623;SDS011;27319;50.306;18.926;2022-12-18T17:13:41;118.55;;;53.00;;
41623;SDS011;27319;50.306;18.926;2022-12-18T17:17:48;130.20;;;54.72;;
41623;SDS011;27319;50.306;18.926;2022-12-18T17:21:49;118.00;;;49.13;;
41623;SDS011;27319;50.306;18.926;2022-12-18T17:25:52;148.98;;;60.92;;
41623;SDS011;27319;50.306;18.926;2022-12-18T17:29:50;148.80;;;60.70;;
41623;SDS011;27319;50.306;18.926;2022-12-18T17:33:51;139.40;;;57.95;;
41623;SDS011;27319;50.306;18.926;2022-12-18T17:37:51;126.25;;;55.05;;
41623;SDS011;27319;50.306;18.926;2022-12-18T17:41:52;141.63;;;60.47;;
41623;SDS011;27319;50.306;18.926;2022-12-18T17:45:53;127.50;;;55.35;;
41623;SDS011;27319;50.306;18.926;2022-12-18T17:49:53;137.32;;;60.55;;
41623;SDS011;27319;50.306;18.926;2022-12-18T17:53:50;124.85;;;53.47;;
41623;SDS011;27319;50.306;18.926;2022-12-18T17:56:50;145.52;;;58.42;;
41623;SDS011;27319;50.306;18.926;2022-12-18T17:59:51;126.10;;;56.47;;
41623;SDS011;27319;50.306;18.926;2022-12-18T18:02:52;133.40;;;58.10;;
41623;SDS011;27319;50.306;18.926;2022-12-18T18:05:54;129.95;;;57.30;;
41623;SDS011;27319;50.306;18.926;2022-12-18T18:08:55;129.35;;;53.10;;
41623;SDS011;27319;50.306;18.926;2022-12-18T18:11:57;129.02;;;51.45;;
41623;SDS011;27319;50.306;18.926;2022-12-18T18:15:35;117.03;;;55.50;;
41623;SDS011;27319;50.306;18.926;2022-12-18T18:18:39;129.15;;;53.53;;
41623;SDS011;27319;50.306;18.926;2022-12-18T18:22:40;112.65;;;47.55;;
41623;SDS011;27319;50.306;18.926;2022-12-18T18:26:40;119.15;;;50.58;;
41623;SDS011;27319;50.306;18.926;2022-12-18T18:30:41;107.85;;;46.65;;
41623;SDS011;27319;50.306;18.926;2022-12-18T18:34:45;118.38;;;45.17;;
41623;SDS011;27319;50.306;18.926;2022-12-18T18:38:46;112.70;;;47.03;;
41623;SDS011;27319;50.306;18.926;2022-12-18T18:42:46;125.07;;;47.63;;
41623;SDS011;27319;50.306;18.926;2022-12-18T18:46:47;117.35;;;47.60;;
41623;SDS011;27319;50.306;18.926;2022-12-18T18:49:48;108.10;;;45.67;;
41623;SDS011;27319;50.306;18.926;2022-12-18T18:52:49;115.68;;;47.83;;
41623;SDS011;27319;50.306;18.926;2022-12-18T18:55:50;109.03;;;49.17;;
41623;SDS011;27319;50.306;18.926;2022-12-18T18:59:50;111.97;;;46.33;;
41623;SDS011;27319;50.306;18.926;2022-12-18T19:03:52;114.13;;;46.58;;
41623;SDS011;27319;50.306;18.926;2022-12-18T19:07:52;104.57;;;46.33;;
41623;SDS011;27319;50.306;18.926;2022-12-18T19:11:53;112.57;;;48.90;;
41623;SDS011;27319;50.306;18.926;2022-12-18T19:16:01;120.47;;;45.75;;
41623;SDS011;27319;50.306;18.926;2022-12-18T19:19:56;114.38;;;48.58;;
41623;SDS011;27319;50.306;18.926;2022-12-18T19:23:56;110.85;;;46.63;;
41623;SDS011;27319;50.306;18.926;2022-12-18T19:27:57;113.72;;;50.55;;
41623;SDS011;27319;50.306;18.926;2022-12-18T19:31:58;122.43;;;49.95;;
41623;SDS011;27319;50.306;18.926;2022-12-18T19:35:58;120.35;;;49.08;;
41623;SDS011;27319;50.306;18.926;2022-12-18T19:39:59;115.22;;;45.80;;
41623;SDS011;27319;50.306;18.926;2022-12-18T19:43:00;117.10;;;45.97;;
41623;SDS011;27319;50.306;18.926;2022-12-18T19:46:01;125.75;;;49.75;;
41623;SDS011;27319;50.306;18.926;2022-12-18T19:50:02;117.55;;;46.17;;
41623;SDS011;27319;50.306;18.926;2022-12-18T19:54:02;109.70;;;43.97;;
41623;SDS011;27319;50.306;18.926;2022-12-18T19:58:03;112.95;;;47.75;;
41623;SDS011;27319;50.306;18.926;2022-12-18T20:02:04;108.57;;;45.90;;
41623;SDS011;27319;50.306;18.926;2022-12-18T20:06:13;117.72;;;46.15;;
41623;SDS011;27319;50.306;18.926;2022-12-18T20:09:18;117.05;;;48.10;;
41623;SDS011;27319;50.306;18.926;2022-12-18T20:12:20;112.72;;;43.60;;
41623;SDS011;27319;50.306;18.926;2022-12-18T20:16:21;113.78;;;45.47;;
41623;SDS011;27319;50.306;18.926;2022-12-18T20:20:21;126.63;;;46.10;;
41623;SDS011;27319;50.306;18.926;2022-12-18T20:24:22;104.35;;;45.95;;
41623;SDS011;27319;50.306;18.926;2022-12-18T20:28:23;109.50;;;43.05;;
41623;SDS011;27319;50.306;18.926;2022-12-18T20:32:23;106.20;;;46.65;;
41623;SDS011;27319;50.306;18.926;2022-12-18T20:36:24;109.80;;;43.47;;
41623;SDS011;27319;50.306;18.926;2022-12-18T20:39:25;107.70;;;43.92;;
41623;SDS011;27319;50.306;18.926;2022-12-18T20:42:27;104.97;;;42.78;;
41623;SDS011;27319;50.306;18.926;2022-12-18T20:46:27;101.80;;;42.35;;
41623;SDS011;27319;50.306;18.926;2022-12-18T20:50:28;106.03;;;42.47;;
41623;SDS011;27319;50.306;18.926;2022-12-18T20:54:28;107.28;;;44.42;;
41623;SDS011;27319;50.306;18.926;2022-12-18T20:58:29;109.30;;;44.25;;
41623;SDS011;27319;50.306;18.926;2022-12-18T21:02:30;95.70;;;41.53;;
41623;SDS011;27319;50.306;18.926;2022-12-18T21:06:31;103.90;;;42.22;;
41623;SDS011;27319;50.306;18.926;2022-12-18T21:09:31;112.18;;;42.83;;
41623;SDS011;27319;50.306;18.926;2022-12-18T21:12:32;137.18;;;52.15;;
41623;SDS011;27319;50.306;18.926;2022-12-18T21:16:33;126.47;;;46.42;;
41623;SDS011;27319;50.306;18.926;2022-12-18T21:20:34;108.35;;;44.13;;
41623;SDS011;27319;50.306;18.926;2022-12-18T21:24:34;116.93;;;49.13;;
41623;SDS011;27319;50.306;18.926;2022-12-18T21:28:35;101.15;;;41.95;;
41623;SDS011;27319;50.306;18.926;2022-12-18T21:32:36;112.50;;;42.78;;
41623;SDS011;27319;50.306;18.926;2022-12-18T21:36:36;114.30;;;43.58;;
41623;SDS011;27319;50.306;18.926;2022-12-18T21:40:37;104.03;;;43.03;;
41623;SDS011;27319;50.306;18.926;2022-12-18T21:44:36;109.53;;;40.93;;
41623;SDS011;27319;50.306;18.926;2022-12-18T21:48:37;107.65;;;44.28;;
41623;SDS011;27319;50.306;18.926;2022-12-18T21:52:37;114.30;;;44.13;;
41623;SDS011;27319;50.306;18.926;2022-12-18T21:56:45;131.18;;;47.63;;
41623;SDS011;27319;50.306;18.926;2022-12-18T22:00:45;104.82;;;43.22;;
41623;SDS011;27319;50.306;18.926;2022-12-18T22:04:46;105.72;;;41.67;;
41623;SDS011;27319;50.306;18.926;2022-12-18T22:08:10;113.20;;;45.28;;
41623;SDS011;27319;50.306;18.926;2022-12-18T22:11:11;90.07;;;37.33;;
41623;SDS011;27319;50.306;18.926;2022-12-18T22:14:13;110.70;;;43.53;;
41623;SDS011;27319;50.306;18.926;2022-12-18T22:17:14;99.40;;;41.97;;
41623;SDS011;27319;50.306;18.926;2022-12-18T22:20:15;99.70;;;40.60;;
41623;SDS011;27319;50.306;18.926;2022-12-18T22:23:17;79.60;;;35.90;;
41623;SDS011;27319;50.306;18.926;2022-12-18T22:26:18;87.75;;;37.05;;
41623;SDS011;27319;50.306;18.926;2022-12-18T22:29:20;92.60;;;36.35;;
41623;SDS011;27319;50.306;18.926;2022-12-18T22:32:41;93.47;;;34.78;;
41623;SDS011;27319;50.306;18.926;2022-12-18T22:36:43;79.85;;;33.78;;
41623;SDS011;27319;50.306;18.926;2022-12-18T22:40:42;91.57;;;33.80;;
41623;SDS011;27319;50.306;18.926;2022-12-18T22:44:43;83.70;;;34.47;;
41623;SDS011;27319;50.306;18.926;2022-12-18T22:48:43;105.75;;;39.22;;
41623;SDS011;27319;50.306;18.926;2022-12-18T22:52:44;116.88;;;44.38;;
41623;SDS011;27319;50.306;18.926;2022-12-18T22:56:45;117.43;;;45.97;;
41623;SDS011;27319;50.306;18.926;2022-12-18T23:00:45;96.80;;;37.22;;
41623;SDS011;27319;50.306;18.926;2022-12-18T23:04:46;89.03;;;35.33;;
41623;SDS011;27319;50.306;18.926;2022-12-18T23:08:15;69.70;;;29.13;;